Time;durP1;ratioP1;P1;durP2;ratioP2;P2;SDS_P1;SDS_P2;PMS_P1;PMS_P2;Temp;Humidity;BMP_temperature;BMP_pressure;BME280_temperature;BME280_humidity;BME280_pressure;Samples;Min_cycle;Max_cycle;Signal;HPM_P1;HPM_P2
2023/04/24 00:02:23;;;;;;;13.18;11.32;;;;;;;9.00;100.00;99942.25;5049131;28;20104;-61
2023/04/24 00:04:49;;;;;;;14.80;11.45;;;;;;;8.99;100.00;99938.78;5025594;28;20035;-61
2023/04/24 00:07:16;;;;;;;14.35;12.10;;;;;;;8.98;100.00;99942.41;5032382;28;20060;-64
2023/04/24 00:09:42;;;;;;;15.02;11.85;;;;;;;8.98;100.00;99945.03;5029744;28;20045;-61
2023/04/24 00:12:08;;;;;;;17.67;12.25;;;;;;;8.97;100.00;99946.00;5023040;28;20029;-62
2023/04/24 00:14:34;;;;;;;17.85;13.52;;;;;;;8.97;100.00;99939.88;5030753;28;20017;-61
2023/04/24 00:17:00;;;;;;;16.13;13.18;;;;;;;8.96;100.00;99943.47;5031446;28;20040;-61
2023/04/24 00:19:25;;;;;;;18.98;14.50;;;;;;;8.96;100.00;99947.00;5033900;28;20100;-61
2023/04/24 00:21:50;;;;;;;19.48;13.55;;;;;;;8.94;100.00;99943.59;5037613;28;20387;-61
2023/04/24 00:24:17;;;;;;;19.23;14.52;;;;;;;8.93;100.00;99952.53;5045373;28;20458;-61
2023/04/24 00:26:42;;;;;;;19.40;15.02;;;;;;;8.91;100.00;99951.84;5027821;28;20081;-61
2023/04/24 00:29:07;;;;;;;20.13;14.90;;;;;;;8.88;100.00;99946.78;5028601;28;20481;-61
2023/04/24 00:31:34;;;;;;;24.52;15.35;;;;;;;8.86;100.00;99952.22;5023632;28;20502;-61
2023/04/24 00:34:00;;;;;;;18.27;15.18;;;;;;;8.84;100.00;99955.94;5036634;28;20025;-61
2023/04/24 00:36:26;;;;;;;21.08;15.35;;;;;;;8.82;100.00;99960.53;5037309;28;20568;-61
2023/04/24 00:38:52;;;;;;;22.35;16.23;;;;;;;8.81;100.00;99958.84;5041805;28;20013;-61
2023/04/24 00:41:17;;;;;;;20.20;15.23;;;;;;;8.79;100.00;99966.94;5041575;28;20475;-60
2023/04/24 00:43:43;;;;;;;21.73;15.18;;;;;;;8.78;100.00;99964.41;5047691;28;20063;-61
2023/04/24 00:46:08;;;;;;;19.33;15.68;;;;;;;8.76;100.00;99958.38;5052252;28;20061;-60
2023/04/24 00:48:34;;;;;;;22.48;16.80;;;;;;;8.77;100.00;99960.91;5047111;28;20053;-61
2023/04/24 00:50:59;;;;;;;21.40;16.33;;;;;;;8.77;100.00;99957.44;5051314;28;20025;-62
2023/04/24 00:53:25;;;;;;;21.27;16.38;;;;;;;8.75;100.00;99962.84;5046919;28;20025;-62
2023/04/24 00:55:51;;;;;;;23.33;16.20;;;;;;;8.73;100.00;99962.16;5051597;28;20390;-61
2023/04/24 00:58:16;;;;;;;23.00;15.90;;;;;;;8.74;100.00;99958.50;5033993;28;20478;-61
2023/04/24 01:00:41;;;;;;;22.75;16.95;;;;;;;8.75;100.00;99954.09;5035134;28;20096;-62
2023/04/24 01:03:07;;;;;;;25.08;17.90;;;;;;;8.73;100.00;99959.50;5022092;28;20028;-61
2023/04/24 01:05:33;;;;;;;23.85;16.23;;;;;;;8.69;100.00;99958.91;5033966;28;20034;-61
2023/04/24 01:07:59;;;;;;;27.23;18.27;;;;;;;8.68;100.00;99959.88;5035164;28;20048;-62
2023/04/24 01:10:26;;;;;;;21.02;17.15;;;;;;;8.67;100.00;99958.19;5033839;28;20033;-62
2023/04/24 01:12:51;;;;;;;25.25;18.38;;;;;;;8.66;100.00;99958.31;5046169;28;20394;-61
2023/04/24 01:15:17;;;;;;;24.60;17.15;;;;;;;8.64;100.00;99953.16;5050935;28;20027;-62
2023/04/24 01:17:42;;;;;;;21.10;17.52;;;;;;;8.63;100.00;99955.94;5038247;28;20028;-62
2023/04/24 01:20:08;;;;;;;23.98;18.13;;;;;;;8.62;100.00;99951.59;5043822;28;20035;-62
2023/04/24 01:22:34;;;;;;;21.48;18.38;;;;;;;8.60;100.00;99954.38;5046906;28;20083;-61
2023/04/24 01:25:00;;;;;;;23.58;18.10;;;;;;;8.58;100.00;99953.66;5028220;28;20510;-62
2023/04/24 01:27:25;;;;;;;23.23;18.15;;;;;;;8.57;100.00;99959.91;5032340;28;20045;-62
2023/04/24 01:29:51;;;;;;;26.35;19.55;;;;;;;8.55;100.00;99959.22;5032125;28;20026;-62
2023/04/24 01:32:17;;;;;;;27.90;19.67;;;;;;;8.54;100.00;99956.69;5034281;28;20363;-62
2023/04/24 01:34:43;;;;;;;29.80;21.65;;;;;;;8.51;100.00;99955.97;5050204;28;20086;-62
2023/04/24 01:37:08;;;;;;;28.50;21.10;;;;;;;8.49;100.00;99955.28;5035802;28;20021;-61
2023/04/24 01:39:33;;;;;;;26.60;21.83;;;;;;;8.49;100.00;99954.41;5049591;28;20029;-61
2023/04/24 01:42:00;;;;;;;31.58;22.80;;;;;;;8.48;100.00;99956.22;5041919;28;20048;-62
2023/04/24 01:44:26;;;;;;;28.58;21.52;;;;;;;8.48;100.00;99956.22;5048454;28;20032;-62
2023/04/24 01:46:53;;;;;;;34.33;23.17;;;;;;;8.48;100.00;99950.94;5027238;28;20467;-61
2023/04/24 01:49:19;;;;;;;28.88;22.73;;;;;;;8.48;100.00;99950.94;5031899;28;20112;-60
2023/04/24 01:51:44;;;;;;;30.23;23.63;;;;;;;8.47;100.00;99954.53;5032217;28;20191;-61
2023/04/24 01:54:10;;;;;;;28.45;23.23;;;;;;;8.46;100.00;99955.53;5024141;28;20038;-61
2023/04/24 01:56:36;;;;;;;28.67;23.63;;;;;;;8.45;100.00;99951.19;5026219;28;20053;-61
2023/04/24 01:59:03;;;;;;;28.70;24.25;;;;;;;8.44;100.00;99961.88;5022281;28;20034;-61
2023/04/24 02:01:34;;;;;;;30.20;23.58;;;;;;;8.42;100.00;99961.16;5023111;28;20021;-60
2023/04/24 02:03:59;;;;;;;29.17;23.60;;;;;;;8.40;100.00;99958.63;5031934;28;20057;-59
2023/04/24 02:06:24;;;;;;;29.55;23.25;;;;;;;8.40;100.00;99966.56;5028183;28;20483;-59
2023/04/24 02:08:50;;;;;;;29.58;23.40;;;;;;;8.39;100.00;99972.81;5012460;28;20018;-56
2023/04/24 02:11:15;;;;;;;28.42;22.08;;;;;;;8.39;100.00;99970.16;5012973;28;20026;-59
2023/04/24 02:13:40;;;;;;;26.95;21.95;;;;;;;8.37;100.00;99969.47;5016768;28;20030;-57
2023/04/24 02:16:05;;;;;;;27.98;22.20;;;;;;;8.34;100.00;99975.84;5046789;28;20024;-56
2023/04/24 02:18:31;;;;;;;28.17;21.70;;;;;;;8.33;100.00;99973.34;5022934;28;20029;-57
2023/04/24 02:20:56;;;;;;;30.45;24.05;;;;;;;8.32;100.00;99972.47;5043096;28;20474;-54
2023/04/24 02:23:21;;;;;;;28.40;22.50;;;;;;;8.31;100.00;99977.88;5032066;28;20032;-55
2023/04/24 02:25:47;;;;;;;28.98;22.65;;;;;;;8.29;100.00;99977.16;5026011;28;20050;-54
2023/04/24 02:28:12;;;;;;;27.52;23.38;;;;;;;8.27;100.00;99971.19;5035752;28;20028;-54
2023/04/24 02:30:37;;;;;;;29.85;23.15;;;;;;;8.26;100.00;99967.69;5045853;28;20033;-54
2023/04/24 02:33:03;;;;;;;28.40;23.55;;;;;;;8.24;100.00;99977.53;5043905;28;20503;-52
2023/04/24 02:35:28;;;;;;;25.67;22.52;;;;;;;8.22;100.00;99970.72;5045468;28;20020;-55
2023/04/24 02:37:54;;;;;;;28.95;22.08;;;;;;;8.20;100.00;99965.53;5046948;28;20021;-52
2023/04/24 02:40:19;;;;;;;26.75;22.17;;;;;;;8.20;100.00;99962.91;5041605;28;20116;-53
2023/04/24 02:42:44;;;;;;;27.65;22.80;;;;;;;8.19;100.00;99966.50;5038400;28;20073;-53
2023/04/24 02:45:10;;;;;;;27.00;22.42;;;;;;;8.19;100.00;99966.50;5034674;28;20021;-55
2023/04/24 02:47:35;;;;;;;26.45;22.27;;;;;;;8.17;100.00;99968.44;5045656;28;20637;-52
2023/04/24 02:50:02;;;;;;;27.42;22.33;;;;;;;8.15;100.00;99951.84;5039595;28;20547;-55
2023/04/24 02:52:28;;;;;;;25.60;21.75;;;;;;;8.18;100.00;99953.38;5049399;28;20036;-51
2023/04/24 02:54:54;;;;;;;28.58;22.77;;;;;;;8.15;100.00;99949.19;5040792;28;20481;-52
2023/04/24 02:57:19;;;;;;;28.00;22.75;;;;;;;8.15;100.00;99946.56;5043662;28;20033;-54
2023/04/24 02:59:44;;;;;;;28.20;22.90;;;;;;;8.14;100.00;99948.38;5043820;28;20478;-51
2023/04/24 03:02:10;;;;;;;26.27;21.58;;;;;;;8.14;100.00;99948.38;5044067;28;20036;-52
2023/04/24 03:04:35;;;;;;;27.25;22.50;;;;;;;8.13;100.00;99946.69;5037516;28;20108;-55
2023/04/24 03:07:01;;;;;;;29.13;22.98;;;;;;;8.13;100.00;99948.50;5033438;28;20122;-54
2023/04/24 03:09:26;;;;;;;26.85;22.63;;;;;;;8.12;100.00;99960.84;5036372;28;20540;-56
2023/04/24 03:11:51;;;;;;;28.98;22.15;;;;;;;8.12;100.00;99949.44;5042785;28;20022;-54
2023/04/24 03:14:17;;;;;;;23.90;20.90;;;;;;;8.11;100.00;99953.91;5047167;28;20048;-57
2023/04/24 03:16:42;;;;;;;24.52;21.02;;;;;;;8.10;100.00;99952.22;5036931;28;20154;-53
2023/04/24 03:19:07;;;;;;;27.67;21.27;;;;;;;8.08;100.00;99951.50;5030969;28;20032;-53
2023/04/24 03:21:33;;;;;;;24.10;21.33;;;;;;;8.09;100.00;99952.34;5044743;28;20065;-57
2023/04/24 03:23:58;;;;;;;25.33;20.98;;;;;;;8.09;100.00;99954.97;5048266;28;20097;-56
2023/04/24 03:26:24;;;;;;;23.92;20.38;;;;;;;8.07;100.00;99955.09;5042732;28;20558;-57
2023/04/24 03:28:50;;;;;;;29.92;19.48;;;;;;;8.06;100.00;99955.22;5040059;28;20021;-56
2023/04/24 03:31:16;;;;;;;24.30;19.67;;;;;;;8.06;100.00;99955.22;5048474;28;20060;-55
2023/04/24 03:33:41;;;;;;;22.30;19.92;;;;;;;8.05;100.00;99958.84;5034562;28;20030;-57
2023/04/24 03:36:07;;;;;;;22.58;19.45;;;;;;;8.05;100.00;99951.75;5030227;28;20024;-58
2023/04/24 03:38:32;;;;;;;26.13;18.65;;;;;;;8.04;100.00;99957.16;5033368;28;20022;-58
2023/04/24 03:40:57;;;;;;;27.83;18.85;;;;;;;8.04;100.00;99950.06;5031332;28;21689;-58
2023/04/24 03:43:23;;;;;;;22.40;17.92;;;;;;;8.05;100.00;99957.03;5047158;28;20033;-57
2023/04/24 03:45:48;;;;;;;24.60;18.13;;;;;;;8.03;100.00;99945.75;5041317;28;20387;-58
2023/04/24 03:48:13;;;;;;;24.08;18.58;;;;;;;8.03;100.00;99944.91;5046522;28;20032;-58
2023/04/24 03:50:39;;;;;;;24.38;18.63;;;;;;;8.01;100.00;99947.69;5037848;28;20505;-60
2023/04/24 03:53:04;;;;;;;21.58;17.90;;;;;;;8.01;100.00;99949.47;5047117;28;20029;-59
2023/04/24 03:55:29;;;;;;;23.02;17.95;;;;;;;7.99;100.00;99943.47;5042297;28;20033;-58
2023/04/24 03:57:55;;;;;;;25.08;17.70;;;;;;;7.99;100.00;99952.22;5041755;28;20492;-59
2023/04/24 04:00:20;;;;;;;23.95;17.75;;;;;;;7.97;100.00;99949.69;5033090;28;20035;-59
2023/04/24 04:02:46;;;;;;;22.33;17.27;;;;;;;7.96;100.00;99950.69;5041492;28;20035;-59
2023/04/24 04:05:11;;;;;;;20.85;17.88;;;;;;;7.97;100.00;99952.34;5032685;28;20030;-60
2023/04/24 04:07:36;;;;;;;22.52;17.80;;;;;;;7.96;100.00;99950.69;5048402;28;20021;-59
2023/04/24 04:10:02;;;;;;;24.15;17.88;;;;;;;7.95;100.00;99954.28;5047436;28;20051;-59
2023/04/24 04:12:27;;;;;;;21.23;18.48;;;;;;;7.94;100.00;99954.41;5051910;28;20052;-59
2023/04/24 04:14:52;;;;;;;20.63;17.33;;;;;;;7.94;100.00;99957.03;5043986;28;20112;-60
2023/04/24 04:17:18;;;;;;;20.23;17.25;;;;;;;7.91;100.00;99955.50;5036076;28;20037;-59
2023/04/24 04:19:43;;;;;;;20.00;17.15;;;;;;;7.91;100.00;99962.56;5042621;28;20379;-58
2023/04/24 04:22:08;;;;;;;20.38;17.80;;;;;;;7.90;100.00;99955.63;5044500;28;20087;-58
2023/04/24 04:24:37;;;;;;;22.52;18.30;;;;;;;7.87;100.00;99961.97;5033679;28;20048;-59
2023/04/24 04:27:04;;;;;;;20.25;17.83;;;;;;;7.87;100.00;99959.34;5040748;28;20102;-58
2023/04/24 04:29:31;;;;;;;20.48;17.42;;;;;;;7.85;100.00;99961.28;5043599;28;20029;-58
2023/04/24 04:31:56;;;;;;;20.02;17.63;;;;;;;7.86;100.00;99964.75;5051491;28;20029;-59
2023/04/24 04:34:22;;;;;;;19.40;17.20;;;;;;;7.86;100.00;99964.75;5046576;28;20485;-59
2023/04/24 04:36:48;;;;;;;20.08;17.48;;;;;;;7.84;100.00;99962.22;5048282;28;20061;-57
2023/04/24 04:39:14;;;;;;;19.63;16.85;;;;;;;7.82;100.00;99961.50;5047292;28;20475;-57
2023/04/24 04:41:40;;;;;;;18.70;16.80;;;;;;;7.81;100.00;99962.50;5042007;28;20021;-58
2023/04/24 04:44:08;;;;;;;18.13;16.33;;;;;;;7.81;100.00;99966.91;5040884;28;20324;-58
2023/04/24 04:46:34;;;;;;;18.00;16.13;;;;;;;7.80;100.00;99971.38;5034319;28;20033;-56
2023/04/24 04:49:01;;;;;;;17.98;15.60;;;;;;;7.78;100.00;99965.38;5036971;28;20108;-56
2023/04/24 04:51:26;;;;;;;16.98;15.27;;;;;;;7.80;100.00;99970.53;5048473;28;20485;-55
2023/04/24 04:53:52;;;;;;;17.92;14.93;;;;;;;7.79;100.00;99980.25;5043391;28;20116;-56
2023/04/24 04:56:17;;;;;;;16.42;14.85;;;;;;;7.81;100.00;99977.50;5049573;28;20041;-56
2023/04/24 04:58:43;;;;;;;14.02;12.55;;;;;;;7.80;100.00;99981.94;5043698;28;20037;-56
2023/04/24 05:01:08;;;;;;;13.98;12.57;;;;;;;7.80;100.00;99981.94;5040740;28;20021;-55
2023/04/24 05:03:33;;;;;;;13.80;12.43;;;;;;;7.81;100.00;99983.63;5043585;28;20108;-55
2023/04/24 05:05:58;;;;;;;14.57;13.15;;;;;;;7.83;100.00;99989.63;5048309;28;20029;-54
2023/04/24 05:08:24;;;;;;;14.85;13.25;;;;;;;7.84;100.00;99983.38;5036904;28;20029;-56
2023/04/24 05:10:49;;;;;;;14.35;13.05;;;;;;;7.85;100.00;99989.53;5047779;28;20498;-56
2023/04/24 05:13:14;;;;;;;13.70;12.13;;;;;;;7.85;100.00;99990.34;5033444;28;20075;-56
2023/04/24 05:15:40;;;;;;;13.18;11.77;;;;;;;7.86;100.00;99985.91;5044895;28;20474;-54
2023/04/24 05:18:05;;;;;;;11.65;10.48;;;;;;;7.86;100.00;99980.59;5020894;28;20029;-56
2023/04/24 05:20:30;;;;;;;11.13;10.02;;;;;;;7.86;100.00;99985.91;5049316;28;20028;-56
2023/04/24 05:22:55;;;;;;;9.27;8.38;;;;;;;7.85;100.00;99985.06;5028563;28;20427;-56
2023/04/24 05:25:21;;;;;;;10.38;9.13;;;;;;;7.86;100.00;99993.81;5035213;28;20028;-54
2023/04/24 05:27:46;;;;;;;7.35;6.70;;;;;;;7.86;100.00;99999.13;5016125;28;20532;-55
2023/04/24 05:30:12;;;;;;;10.60;7.05;;;;;;;7.87;100.00;100014.03;5031999;28;20021;-55
2023/04/24 05:32:37;;;;;;;8.77;5.15;;;;;;;7.83;100.00;100021.38;5034069;28;20030;-55
2023/04/24 05:35:03;;;;;;;7.07;5.03;;;;;;;7.83;100.00;100013.44;5032712;28;20021;-56
2023/04/24 05:37:29;;;;;;;5.88;4.20;;;;;;;7.81;100.00;100025.94;5025432;28;20021;-54
2023/04/24 05:39:54;;;;;;;5.35;3.55;;;;;;;7.81;100.00;100022.44;5034348;28;20021;-53
2023/04/24 05:42:19;;;;;;;3.97;3.45;;;;;;;7.78;100.00;100028.81;5033396;28;20044;-55
2023/04/24 05:44:44;;;;;;;5.28;2.65;;;;;;;7.76;100.00;100030.72;5029102;28;20054;-54
2023/04/24 05:47:10;;;;;;;3.88;2.75;;;;;;;7.76;100.00;100030.72;5032812;28;20033;-54
2023/04/24 05:49:35;;;;;;;4.57;3.08;;;;;;;7.74;100.00;100045.84;5042803;28;20032;-53
2023/04/24 05:52:01;;;;;;;4.22;3.22;;;;;;;7.74;100.00;100044.06;5039749;28;21015;-54
2023/04/24 05:54:26;;;;;;;5.30;3.30;;;;;;;7.73;100.00;100041.56;5022809;28;20032;-50
2023/04/24 05:56:51;;;;;;;3.47;2.70;;;;;;;7.73;100.00;100050.31;5032255;28;20028;-55
2023/04/24 05:59:17;;;;;;;5.55;3.72;;;;;;;7.72;100.00;100048.63;5031382;28;20026;-54
2023/04/24 06:01:42;;;;;;;4.85;3.65;;;;;;;7.72;100.00;100048.63;5030046;28;20131;-53
2023/04/24 06:04:07;;;;;;;5.93;3.80;;;;;;;7.71;100.00;100046.94;5012371;28;20482;-54
2023/04/24 06:06:33;;;;;;;4.93;4.30;;;;;;;7.73;100.00;100050.31;5018757;28;20030;-54
2023/04/24 06:08:58;;;;;;;7.00;4.65;;;;;;;7.74;100.00;100067.00;5024980;28;20041;-54
2023/04/24 06:11:24;;;;;;;5.38;4.78;;;;;;;7.72;100.00;100058.34;5018245;28;20022;-54
2023/04/24 06:13:50;;;;;;;6.95;5.65;;;;;;;7.72;100.00;100063.66;5019225;28;20120;-54
2023/04/24 06:16:15;;;;;;;8.38;6.13;;;;;;;7.71;100.00;100059.31;5034242;28;20021;-54
2023/04/24 06:18:40;;;;;;;8.27;6.07;;;;;;;7.69;100.00;100070.00;5026375;28;20508;-55
2023/04/24 06:21:06;;;;;;;7.15;6.40;;;;;;;7.67;100.00;100081.66;5013868;28;20057;-53
2023/04/24 06:23:32;;;;;;;8.88;6.65;;;;;;;7.67;100.00;100085.13;5034040;28;20538;-53
2023/04/24 06:25:58;;;;;;;9.10;6.70;;;;;;;7.65;100.00;100092.34;5022607;28;20050;-55
2023/04/24 06:28:24;;;;;;;13.32;7.97;;;;;;;7.65;100.00;100100.28;5025995;28;20055;-54
2023/04/24 06:30:49;;;;;;;10.80;7.55;;;;;;;7.65;100.00;100113.50;5026009;28;20104;-54
2023/04/24 06:33:16;;;;;;;10.40;7.68;;;;;;;7.65;100.00;100124.06;5024249;28;20111;-54
2023/04/24 06:35:41;;;;;;;12.55;8.57;;;;;;;7.67;100.00;100131.88;5032729;28;20028;-55
2023/04/24 06:38:06;;;;;;;10.90;8.82;;;;;;;7.67;100.00;100135.34;5020375;28;20033;-54
2023/04/24 06:40:31;;;;;;;11.63;9.45;;;;;;;7.67;100.00;100145.09;5033436;28;20025;-55
2023/04/24 06:42:58;;;;;;;11.85;9.43;;;;;;;7.67;100.00;100153.03;5036292;28;20083;-51
2023/04/24 06:45:23;;;;;;;12.73;10.05;;;;;;;7.66;100.00;100157.47;5031137;28;20107;-54
2023/04/24 06:47:48;;;;;;;16.48;10.68;;;;;;;7.67;100.00;100171.53;5020286;28;20030;-55
2023/04/24 06:50:14;;;;;;;13.52;10.88;;;;;;;7.66;100.00;100167.19;5029427;28;20056;-55
2023/04/24 06:52:40;;;;;;;15.07;11.75;;;;;;;7.66;100.00;100185.69;5020718;28;20367;-52
2023/04/24 06:55:06;;;;;;;18.58;12.52;;;;;;;7.65;100.00;100194.59;5031208;28;20123;-54
2023/04/24 06:57:31;;;;;;;17.45;12.40;;;;;;;7.65;100.00;100199.88;5019120;28;20490;-51
2023/04/24 06:59:57;;;;;;;20.35;12.95;;;;;;;7.67;100.00;100213.81;5021608;28;20033;-52
2023/04/24 07:02:22;;;;;;;17.45;13.55;;;;;;;7.66;100.00;100226.19;5026423;28;20108;-54
2023/04/24 07:04:47;;;;;;;22.73;14.38;;;;;;;7.65;100.00;100228.97;5018071;28;20120;-55
2023/04/24 07:07:14;;;;;;;21.50;14.40;;;;;;;7.65;100.00;100235.06;5022696;28;20128;-51
2023/04/24 07:09:42;;;;;;;21.27;14.93;;;;;;;7.66;100.00;100243.84;5021850;28;20048;-54
2023/04/24 07:12:07;;;;;;;19.42;13.85;;;;;;;7.62;100.00;100243.22;5023776;28;20079;-54
2023/04/24 07:14:32;;;;;;;18.40;13.50;;;;;;;7.63;100.00;100247.56;5029832;28;20053;-51
2023/04/24 07:16:58;;;;;;;21.33;14.45;;;;;;;7.65;100.00;100260.66;5033937;28;20029;-51
2023/04/24 07:19:23;;;;;;;19.77;14.15;;;;;;;7.68;100.00;100263.09;5015861;28;20033;-52
2023/04/24 07:21:48;;;;;;;18.52;13.65;;;;;;;7.68;100.00;100277.16;5026828;28;20504;-54
2023/04/24 07:24:14;;;;;;;21.25;13.60;;;;;;;7.69;100.00;100277.97;5020677;28;20542;-55
2023/04/24 07:26:40;;;;;;;20.52;13.25;;;;;;;7.69;100.00;100284.09;5029532;28;20045;-54
2023/04/24 07:29:05;;;;;;;19.80;13.30;;;;;;;7.70;100.00;100296.38;5029880;28;20124;-54
2023/04/24 07:31:31;;;;;;;17.73;12.75;;;;;;;7.71;100.00;100298.06;5023305;28;20107;-54
2023/04/24 07:33:58;;;;;;;19.23;12.15;;;;;;;7.71;100.00;100310.41;5024534;28;20029;-55
2023/04/24 07:36:24;;;;;;;18.08;12.35;;;;;;;7.69;100.00;100297.31;5035766;28;20033;-54
2023/04/24 07:38:49;;;;;;;18.88;10.90;;;;;;;7.68;100.00;100335.28;5036793;28;20082;-55
2023/04/24 07:41:15;;;;;;;18.20;9.30;;;;;;;7.67;100.00;100336.25;5030304;28;20106;-53
2023/04/24 07:43:41;;;;;;;19.23;7.75;;;;;;;7.65;100.00;100347.91;5038306;28;20037;-55
2023/04/24 07:46:07;;;;;;;16.02;7.75;;;;;;;7.65;100.00;100353.19;5032158;28;20351;-55
2023/04/24 07:48:33;;;;;;;16.02;7.35;;;;;;;7.66;100.00;100354.84;5045378;28;20055;-57
2023/04/24 07:50:58;;;;;;;18.60;7.95;;;;;;;7.65;100.00;100363.75;5033052;28;20026;-54
2023/04/24 07:53:23;;;;;;;19.70;7.93;;;;;;;7.66;100.00;100365.41;5034817;28;20029;-55
2023/04/24 07:55:49;;;;;;;18.85;7.80;;;;;;;7.68;100.00;100371.47;5036975;28;20036;-55
2023/04/24 07:58:15;;;;;;;17.17;8.38;;;;;;;7.69;100.00;100381.91;5027234;28;20061;-55
2023/04/24 08:00:40;;;;;;;18.15;8.02;;;;;;;7.72;100.00;100380.84;5040860;28;20120;-55
2023/04/24 08:03:05;;;;;;;19.27;7.53;;;;;;;7.74;100.00;100384.22;5014914;28;20105;-54
2023/04/24 08:05:31;;;;;;;20.63;8.60;;;;;;;7.75;100.00;100394.69;5019460;28;20109;-55
2023/04/24 08:07:56;;;;;;;24.08;8.35;;;;;;;7.75;100.00;100396.50;5018737;28;20021;-55
2023/04/24 08:10:22;;;;;;;19.90;8.15;;;;;;;7.76;100.00;100399.03;5021192;28;20038;-55
2023/04/24 08:12:48;;;;;;;21.25;8.82;;;;;;;7.78;100.00;100404.22;5014305;28;20022;-55
2023/04/24 08:15:13;;;;;;;18.95;8.95;;;;;;;7.78;100.00;100414.78;5017570;28;20040;-54
2023/04/24 08:17:38;;;;;;;23.95;9.05;;;;;;;7.78;100.00;100409.50;5016407;28;20080;-54
2023/04/24 08:20:05;;;;;;;21.75;9.43;;;;;;;7.80;100.00;100422.59;5017814;28;20018;-55
2023/04/24 08:22:31;;;;;;;26.48;9.48;;;;;;;7.80;100.00;100423.44;5026117;28;20425;-53
2023/04/24 08:24:57;;;;;;;18.17;9.32;;;;;;;7.83;100.00;100432.94;5033871;28;20086;-56
2023/04/24 08:27:23;;;;;;;22.02;9.27;;;;;;;7.84;100.00;100426.72;5001428;28;20096;-55
2023/04/24 08:29:50;;;;;;;25.17;9.32;;;;;;;7.88;100.00;100441.41;5022182;28;20048;-56
2023/04/24 08:32:15;;;;;;;22.15;8.20;;;;;;;7.90;100.00;100448.25;5025947;28;20032;-56
2023/04/24 08:34:41;;;;;;;21.88;7.75;;;;;;;7.91;100.00;100455.25;5024300;28;20033;-55
2023/04/24 08:37:06;;;;;;;22.95;7.95;;;;;;;7.92;100.00;100451.63;5034416;28;20475;-56
2023/04/24 08:39:31;;;;;;;20.73;8.13;;;;;;;7.95;100.00;100454.06;5036067;28;20029;-56
2023/04/24 08:42:04;;;;;;;22.52;7.43;;;;;;;7.97;100.00;100464.53;5032838;28;20058;-56
2023/04/24 08:44:32;;;;;;;18.23;6.95;;;;;;;8.00;100.00;100474.91;5041773;28;20067;-56
2023/04/24 08:46:57;;;;;;;18.92;6.75;;;;;;;8.04;100.00;100479.00;5047208;28;20053;-56
2023/04/24 08:49:25;;;;;;;19.52;6.47;;;;;;;8.07;100.00;100485.88;5032382;28;20553;-56
2023/04/24 08:51:52;;;;;;;18.63;6.93;;;;;;;8.11;100.00;100489.97;5026349;28;20036;-56
2023/04/24 08:54:18;;;;;;;19.38;6.80;;;;;;;8.15;100.00;100497.59;5033511;28;20025;-57
2023/04/24 08:56:44;;;;;;;25.38;7.10;;;;;;;8.21;100.00;100495.47;5032957;28;20038;-56
2023/04/24 08:59:10;;;;;;;18.55;6.38;;;;;;;8.21;100.00;100506.91;5026668;28;20387;-57
2023/04/24 09:01:37;;;;;;;20.55;5.80;;;;;;;8.19;100.00;100503.50;5015490;28;20140;-57
2023/04/24 09:04:03;;;;;;;18.10;5.72;;;;;;;8.22;100.00;100508.56;5016535;28;20025;-57
2023/04/24 09:06:30;;;;;;;19.77;6.07;;;;;;;8.19;100.00;100507.97;5022893;28;20064;-56
2023/04/24 09:08:57;;;;;;;18.75;5.53;;;;;;;8.15;100.00;100513.47;5030859;28;20057;-57
2023/04/24 09:11:24;;;;;;;14.05;4.47;;;;;;;8.13;100.00;100525.97;5044733;28;20160;-57
2023/04/24 09:13:50;;;;;;;15.32;4.43;;;;;;;8.11;100.00;100519.94;5038046;28;20036;-56
2023/04/24 09:16:16;;;;;;;14.93;4.70;;;;;;;8.13;100.00;100525.13;5038382;28;20518;-57
2023/04/24 09:18:42;;;;;;;17.55;4.85;;;;;;;8.14;100.00;100532.09;5017409;28;20033;-57
2023/04/24 09:21:09;;;;;;;15.68;5.35;;;;;;;8.19;100.00;100539.69;5018222;28;20495;-57
2023/04/24 09:23:34;;;;;;;17.27;4.70;;;;;;;8.24;100.00;100543.69;5030350;28;20032;-56
2023/04/24 09:26:01;;;;;;;14.93;4.80;;;;;;;8.27;100.00;100554.06;5019458;28;20387;-55
2023/04/24 09:28:30;;;;;;;16.27;4.35;;;;;;;8.24;100.00;100554.28;5019530;28;20020;-58
2023/04/24 09:31:05;;;;;;;16.70;4.60;;;;;;;8.24;100.00;100564.88;5013819;28;20091;-57
2023/04/24 09:33:30;;;;;;;16.23;4.40;;;;;;;8.21;100.00;100565.09;5013100;28;20297;-56
2023/04/24 09:35:55;;;;;;;17.83;4.53;;;;;;;8.20;100.00;100570.50;5014475;28;20517;-58
2023/04/24 09:38:35;;;;;;;15.57;4.78;;;;;;;8.20;100.00;100581.09;5016639;28;20386;-57
2023/04/24 09:41:06;;;;;;;14.13;3.88;;;;;;;8.14;100.00;100577.94;5027266;28;20398;-57
2023/04/24 09:43:32;;;;;;;16.38;4.10;;;;;;;8.13;100.00;100586.81;5037318;28;20360;-58
2023/04/24 09:46:03;;;;;;;13.63;4.25;;;;;;;8.11;100.00;100590.50;5023768;28;20045;-58
2023/04/24 09:48:34;;;;;;;12.73;3.42;;;;;;;8.10;100.00;100594.13;5035838;28;20056;-57
2023/04/24 09:51:01;;;;;;;14.98;3.80;;;;;;;8.11;100.00;100603.72;5037958;28;20026;-58
2023/04/24 09:53:27;;;;;;;14.43;3.85;;;;;;;8.19;100.00;100606.69;5035273;28;20359;-58
2023/04/24 09:55:53;;;;;;;10.98;3.50;;;;;;;8.23;100.00;100599.41;5024739;28;20114;-56
2023/04/24 09:58:25;;;;;;;16.27;3.90;;;;;;;8.30;100.00;100605.94;5031289;28;20033;-60
2023/04/24 10:00:53;;;;;;;11.50;3.30;;;;;;;8.42;100.00;100613.00;5031533;28;20446;-59
2023/04/24 10:03:18;;;;;;;15.73;3.55;;;;;;;8.60;100.00;100617.97;5028608;28;20022;-59
2023/04/24 10:05:46;;;;;;;10.82;3.22;;;;;;;8.73;100.00;100612.63;5024145;28;20022;-58
2023/04/24 10:08:13;;;;;;;11.77;4.22;;;;;;;8.83;100.00;100614.50;5029411;28;20021;-59
2023/04/24 10:10:43;;;;;;;12.38;3.40;;;;;;;8.92;100.00;100623.56;5030613;28;20498;-59
2023/04/24 10:13:10;;;;;;;14.27;3.60;;;;;;;9.01;100.00;100620.25;5031425;28;20036;-59
2023/04/24 10:15:36;;;;;;;8.02;2.80;;;;;;;9.05;100.00;100608.47;5027266;28;20383;-58
2023/04/24 10:18:02;;;;;;;12.23;3.38;;;;;;;9.06;100.00;100619.91;5016428;28;20049;-60
2023/04/24 10:20:32;;;;;;;10.30;3.20;;;;;;;9.08;100.00;100615.34;5048921;28;20025;-59
2023/04/24 10:22:59;;;;;;;7.32;2.88;;;;;;;9.08;100.00;100634.72;5029350;28;20034;-59
2023/04/24 10:25:27;;;;;;;13.73;3.53;;;;;;;9.06;100.00;100641.94;5038268;28;20036;-61
2023/04/24 10:27:57;;;;;;;11.30;2.60;;;;;;;8.97;99.73;100647.06;5031366;28;20018;-58
2023/04/24 10:30:22;;;;;;;6.43;2.40;;;;;;;8.89;98.63;100645.84;5023023;28;20407;-60
2023/04/24 10:32:48;;;;;;;6.45;2.20;;;;;;;8.81;99.59;100655.28;5032411;28;20045;-60
2023/04/24 10:35:15;;;;;;;6.15;1.80;;;;;;;8.76;97.67;100657.41;5022987;28;20021;-60
2023/04/24 10:37:44;;;;;;;6.95;2.00;;;;;;;8.70;97.41;100646.31;5026601;28;20060;-59
2023/04/24 10:40:10;;;;;;;5.28;1.70;;;;;;;8.75;98.50;100661.03;5024877;28;20022;-59
2023/04/24 10:42:41;;;;;;;5.18;1.77;;;;;;;8.77;99.76;100659.13;5023094;28;20105;-62
2023/04/24 10:45:15;;;;;;;6.55;1.60;;;;;;;8.84;98.49;100668.28;5036376;28;20056;-59
2023/04/24 10:47:41;;;;;;;7.03;2.28;;;;;;;8.87;96.76;100663.63;5024432;28;20132;-61
2023/04/24 10:50:10;;;;;;;8.40;2.13;;;;;;;8.98;100.00;100668.16;5023602;28;20112;-60
2023/04/24 10:52:46;;;;;;;4.47;1.70;;;;;;;8.99;96.66;100675.16;5029659;28;20071;-61
2023/04/24 10:55:14;;;;;;;11.57;2.20;;;;;;;9.01;94.32;100673.22;5022390;28;20052;-60
2023/04/24 10:57:39;;;;;;;6.50;1.90;;;;;;;9.06;94.27;100667.59;5026781;28;20068;-60
2023/04/24 11:00:21;;;;;;;5.53;1.70;;;;;;;9.14;95.69;100677.63;5021967;28;20491;-59
2023/04/24 11:02:50;;;;;;;4.13;2.00;;;;;;;9.13;94.41;100679.44;5025665;28;20041;-61
2023/04/24 11:05:17;;;;;;;5.20;2.37;;;;;;;9.17;95.13;100678.25;5037804;28;20021;-60
2023/04/24 11:08:15;;;;;;;7.20;2.95;;;;;;;9.20;92.60;100680.66;5023875;28;20418;-59
2023/04/24 11:10:44;;;;;;;6.10;1.93;;;;;;;9.16;92.35;100684.53;5032680;28;20040;-61
2023/04/24 11:13:10;;;;;;;7.22;2.10;;;;;;;9.15;92.10;100687.28;5025846;28;20128;-60
2023/04/24 11:15:35;;;;;;;6.22;2.25;;;;;;;9.12;90.94;100690.97;5032979;28;20149;-60